sensor_id;sensor_type;location;lat;lon;timestamp;P1;durP1;ratioP1;P2;durP2;ratioP2
1613;SDS011;800;48.824;9.346;2023-02-28T00:02:12;4.10;;;2.40;;
1613;SDS011;800;48.824;9.346;2023-02-28T00:04:37;2.47;;;2.27;;
1613;SDS011;800;48.824;9.346;2023-02-28T00:07:03;3.00;;;2.13;;
1613;SDS011;800;48.824;9.346;2023-02-28T00:09:28;2.87;;;2.33;;
1613;SDS011;800;48.824;9.346;2023-02-28T00:11:54;2.80;;;2.50;;
1613;SDS011;800;48.824;9.346;2023-02-28T00:14:19;3.40;;;2.40;;
1613;SDS011;800;48.824;9.346;2023-02-28T00:16:45;3.00;;;2.23;;
1613;SDS011;800;48.824;9.346;2023-02-28T00:19:11;3.83;;;2.67;;
1613;SDS011;800;48.824;9.346;2023-02-28T00:21:38;2.40;;;2.20;;
1613;SDS011;800;48.824;9.346;2023-02-28T00:24:05;3.73;;;2.50;;
1613;SDS011;800;48.824;9.346;2023-02-28T00:26:31;5.30;;;2.97;;
1613;SDS011;800;48.824;9.346;2023-02-28T00:28:57;3.97;;;2.37;;
1613;SDS011;800;48.824;9.346;2023-02-28T00:31:22;2.43;;;2.23;;
1613;SDS011;800;48.824;9.346;2023-02-28T00:33:48;3.50;;;2.00;;
1613;SDS011;800;48.824;9.346;2023-02-28T00:36:15;1.93;;;1.83;;
1613;SDS011;800;48.824;9.346;2023-02-28T00:38:41;4.03;;;3.00;;
1613;SDS011;800;48.824;9.346;2023-02-28T00:41:07;3.33;;;2.50;;
1613;SDS011;800;48.824;9.346;2023-02-28T00:43:33;3.20;;;2.60;;
1613;SDS011;800;48.824;9.346;2023-02-28T00:46:00;4.03;;;2.87;;
1613;SDS011;800;48.824;9.346;2023-02-28T00:48:26;2.67;;;2.47;;
1613;SDS011;800;48.824;9.346;2023-02-28T00:50:52;3.47;;;2.67;;
1613;SDS011;800;48.824;9.346;2023-02-28T00:53:18;3.10;;;2.60;;
1613;SDS011;800;48.824;9.346;2023-02-28T00:55:43;3.13;;;2.53;;
1613;SDS011;800;48.824;9.346;2023-02-28T00:58:09;3.80;;;2.60;;
1613;SDS011;800;48.824;9.346;2023-02-28T01:00:34;3.73;;;2.57;;
1613;SDS011;800;48.824;9.346;2023-02-28T01:03:00;3.37;;;2.40;;
1613;SDS011;800;48.824;9.346;2023-02-28T01:05:25;6.43;;;3.73;;
1613;SDS011;800;48.824;9.346;2023-02-28T01:07:51;3.63;;;2.30;;
1613;SDS011;800;48.824;9.346;2023-02-28T01:10:17;3.00;;;2.60;;
1613;SDS011;800;48.824;9.346;2023-02-28T01:12:43;3.10;;;2.30;;
1613;SDS011;800;48.824;9.346;2023-02-28T01:15:09;3.40;;;2.97;;
1613;SDS011;800;48.824;9.346;2023-02-28T01:17:36;2.63;;;2.43;;
1613;SDS011;800;48.824;9.346;2023-02-28T01:20:02;2.77;;;2.57;;
1613;SDS011;800;48.824;9.346;2023-02-28T01:22:28;3.37;;;3.00;;
1613;SDS011;800;48.824;9.346;2023-02-28T01:24:54;2.63;;;2.43;;
1613;SDS011;800;48.824;9.346;2023-02-28T01:27:20;4.73;;;2.80;;
1613;SDS011;800;48.824;9.346;2023-02-28T01:29:45;3.37;;;2.87;;
1613;SDS011;800;48.824;9.346;2023-02-28T01:32:11;4.17;;;2.63;;
1613;SDS011;800;48.824;9.346;2023-02-28T01:34:36;3.40;;;2.47;;
1613;SDS011;800;48.824;9.346;2023-02-28T01:37:02;4.07;;;3.20;;
1613;SDS011;800;48.824;9.346;2023-02-28T01:39:28;4.10;;;2.90;;
1613;SDS011;800;48.824;9.346;2023-02-28T01:41:54;3.40;;;3.10;;
1613;SDS011;800;48.824;9.346;2023-02-28T01:47:26;3.00;;;2.40;;
1613;SDS011;800;48.824;9.346;2023-02-28T01:49:59;5.00;;;3.20;;
1613;SDS011;800;48.824;9.346;2023-02-28T01:52:28;3.50;;;3.10;;
1613;SDS011;800;48.824;9.346;2023-02-28T01:54:56;3.47;;;3.17;;
1613;SDS011;800;48.824;9.346;2023-02-28T01:57:25;3.20;;;2.67;;
1613;SDS011;800;48.824;9.346;2023-02-28T02:00:06;4.23;;;2.87;;
1613;SDS011;800;48.824;9.346;2023-02-28T02:02:34;3.77;;;2.60;;
1613;SDS011;800;48.824;9.346;2023-02-28T02:05:06;4.30;;;3.33;;
1613;SDS011;800;48.824;9.346;2023-02-28T02:07:38;3.63;;;3.20;;
1613;SDS011;800;48.824;9.346;2023-02-28T02:10:13;3.90;;;2.83;;
1613;SDS011;800;48.824;9.346;2023-02-28T02:15:47;3.63;;;3.13;;
1613;SDS011;800;48.824;9.346;2023-02-28T02:26:43;5.40;;;3.17;;
1613;SDS011;800;48.824;9.346;2023-02-28T02:32:14;5.03;;;3.07;;
1613;SDS011;800;48.824;9.346;2023-02-28T02:37:52;7.00;;;3.57;;
1613;SDS011;800;48.824;9.346;2023-02-28T02:40:30;4.10;;;3.70;;
1613;SDS011;800;48.824;9.346;2023-02-28T02:43:25;4.20;;;3.53;;
1613;SDS011;800;48.824;9.346;2023-02-28T02:45:54;4.53;;;3.77;;
1613;SDS011;800;48.824;9.346;2023-02-28T02:48:25;4.87;;;3.10;;
1613;SDS011;800;48.824;9.346;2023-02-28T02:50:54;4.40;;;3.50;;
1613;SDS011;800;48.824;9.346;2023-02-28T02:53:30;4.10;;;3.70;;
1613;SDS011;800;48.824;9.346;2023-02-28T02:56:00;3.50;;;3.20;;
1613;SDS011;800;48.824;9.346;2023-02-28T02:58:31;4.20;;;3.63;;
1613;SDS011;800;48.824;9.346;2023-02-28T03:01:06;3.97;;;3.40;;
1613;SDS011;800;48.824;9.346;2023-02-28T03:03:34;4.10;;;3.20;;
1613;SDS011;800;48.824;9.346;2023-02-28T03:06:00;4.60;;;3.80;;
1613;SDS011;800;48.824;9.346;2023-02-28T03:08:27;4.03;;;3.63;;
1613;SDS011;800;48.824;9.346;2023-02-28T03:11:02;4.83;;;3.97;;
1613;SDS011;800;48.824;9.346;2023-02-28T03:35:37;4.50;;;3.70;;
1613;SDS011;800;48.824;9.346;2023-02-28T03:40:50;4.50;;;4.10;;
1613;SDS011;800;48.824;9.346;2023-02-28T03:43:24;4.53;;;3.37;;
1613;SDS011;800;48.824;9.346;2023-02-28T03:45:54;9.03;;;4.67;;
1613;SDS011;800;48.824;9.346;2023-02-28T03:48:22;5.13;;;3.50;;
1613;SDS011;800;48.824;9.346;2023-02-28T03:50:57;4.80;;;3.27;;
1613;SDS011;800;48.824;9.346;2023-02-28T03:53:25;4.97;;;4.00;;
1613;SDS011;800;48.824;9.346;2023-02-28T03:56:18;4.90;;;3.90;;
1613;SDS011;800;48.824;9.346;2023-02-28T04:01:25;4.30;;;3.50;;
1613;SDS011;800;48.824;9.346;2023-02-28T04:04:06;4.93;;;4.43;;
1613;SDS011;800;48.824;9.346;2023-02-28T04:06:33;8.20;;;4.23;;
1613;SDS011;800;48.824;9.346;2023-02-28T04:09:00;6.07;;;4.10;;
1613;SDS011;800;48.824;9.346;2023-02-28T04:14:06;4.13;;;3.73;;
1613;SDS011;800;48.824;9.346;2023-02-28T04:16:33;7.17;;;4.40;;
1613;SDS011;800;48.824;9.346;2023-02-28T04:19:01;5.17;;;4.17;;
1613;SDS011;800;48.824;9.346;2023-02-28T04:21:30;5.63;;;4.17;;
1613;SDS011;800;48.824;9.346;2023-02-28T04:24:02;5.40;;;4.10;;
1613;SDS011;800;48.824;9.346;2023-02-28T04:26:36;4.90;;;3.93;;
1613;SDS011;800;48.824;9.346;2023-02-28T04:29:06;5.10;;;4.60;;
1613;SDS011;800;48.824;9.346;2023-02-28T04:31:32;5.43;;;4.70;;
1613;SDS011;800;48.824;9.346;2023-02-28T04:33:59;4.37;;;3.97;;
1613;SDS011;800;48.824;9.346;2023-02-28T04:36:25;5.37;;;4.73;;
1613;SDS011;800;48.824;9.346;2023-02-28T04:38:51;5.13;;;3.80;;
1613;SDS011;800;48.824;9.346;2023-02-28T04:41:18;4.27;;;3.87;;
1613;SDS011;800;48.824;9.346;2023-02-28T04:43:46;7.20;;;3.97;;
1613;SDS011;800;48.824;9.346;2023-02-28T04:46:12;4.17;;;3.70;;
1613;SDS011;800;48.824;9.346;2023-02-28T04:48:38;5.50;;;4.40;;
1613;SDS011;800;48.824;9.346;2023-02-28T04:51:09;6.23;;;4.23;;
1613;SDS011;800;48.824;9.346;2023-02-28T04:53:37;6.33;;;4.57;;
1613;SDS011;800;48.824;9.346;2023-02-28T04:56:04;7.73;;;4.90;;
1613;SDS011;800;48.824;9.346;2023-02-28T04:58:31;6.40;;;4.40;;
1613;SDS011;800;48.824;9.346;2023-02-28T05:01:14;6.03;;;4.03;;
1613;SDS011;800;48.824;9.346;2023-02-28T05:03:48;8.70;;;4.43;;
1613;SDS011;800;48.824;9.346;2023-02-28T05:06:15;5.10;;;4.43;;
1613;SDS011;800;48.824;9.346;2023-02-28T05:08:41;6.47;;;5.20;;
1613;SDS011;800;48.824;9.346;2023-02-28T05:11:12;5.07;;;4.00;;
1613;SDS011;800;48.824;9.346;2023-02-28T05:13:44;6.03;;;4.10;;
1613;SDS011;800;48.824;9.346;2023-02-28T05:16:10;8.33;;;4.40;;
1613;SDS011;800;48.824;9.346;2023-02-28T05:18:36;7.23;;;4.77;;
1613;SDS011;800;48.824;9.346;2023-02-28T05:21:02;5.47;;;4.50;;
1613;SDS011;800;48.824;9.346;2023-02-28T05:23:28;6.87;;;4.87;;
1613;SDS011;800;48.824;9.346;2023-02-28T05:25:53;4.97;;;3.90;;
1613;SDS011;800;48.824;9.346;2023-02-28T05:28:20;6.63;;;5.40;;
1613;SDS011;800;48.824;9.346;2023-02-28T05:30:45;9.77;;;5.30;;
1613;SDS011;800;48.824;9.346;2023-02-28T05:33:11;5.80;;;4.93;;
1613;SDS011;800;48.824;9.346;2023-02-28T05:35:38;7.80;;;4.90;;
1613;SDS011;800;48.824;9.346;2023-02-28T05:38:04;5.27;;;4.77;;
1613;SDS011;800;48.824;9.346;2023-02-28T05:40:30;6.10;;;4.40;;
1613;SDS011;800;48.824;9.346;2023-02-28T05:42:55;7.10;;;4.77;;
1613;SDS011;800;48.824;9.346;2023-02-28T05:45:21;7.00;;;4.70;;
1613;SDS011;800;48.824;9.346;2023-02-28T05:47:47;7.97;;;4.70;;
1613;SDS011;800;48.824;9.346;2023-02-28T05:50:12;5.30;;;4.47;;
1613;SDS011;800;48.824;9.346;2023-02-28T05:52:38;6.40;;;4.87;;
1613;SDS011;800;48.824;9.346;2023-02-28T05:55:04;5.50;;;4.97;;
1613;SDS011;800;48.824;9.346;2023-02-28T05:57:29;5.60;;;4.60;;
1613;SDS011;800;48.824;9.346;2023-02-28T05:59:55;8.93;;;4.80;;
1613;SDS011;800;48.824;9.346;2023-02-28T06:02:21;7.77;;;6.00;;
1613;SDS011;800;48.824;9.346;2023-02-28T06:04:46;6.00;;;4.90;;
1613;SDS011;800;48.824;9.346;2023-02-28T06:07:12;6.97;;;5.20;;
1613;SDS011;800;48.824;9.346;2023-02-28T06:09:37;9.87;;;6.60;;
1613;SDS011;800;48.824;9.346;2023-02-28T06:12:04;14.20;;;7.17;;
1613;SDS011;800;48.824;9.346;2023-02-28T06:14:32;7.20;;;5.23;;
1613;SDS011;800;48.824;9.346;2023-02-28T06:16:59;8.67;;;5.17;;
1613;SDS011;800;48.824;9.346;2023-02-28T06:19:25;6.77;;;5.50;;
1613;SDS011;800;48.824;9.346;2023-02-28T06:21:51;6.73;;;5.50;;
1613;SDS011;800;48.824;9.346;2023-02-28T06:24:18;6.43;;;5.27;;
1613;SDS011;800;48.824;9.346;2023-02-28T06:26:45;9.07;;;5.43;;
1613;SDS011;800;48.824;9.346;2023-02-28T06:29:10;8.20;;;5.73;;
1613;SDS011;800;48.824;9.346;2023-02-28T06:31:36;5.93;;;4.37;;
1613;SDS011;800;48.824;9.346;2023-02-28T06:34:03;7.40;;;5.40;;
1613;SDS011;800;48.824;9.346;2023-02-28T06:36:29;6.67;;;5.97;;
1613;SDS011;800;48.824;9.346;2023-02-28T06:38:58;8.47;;;5.83;;
1613;SDS011;800;48.824;9.346;2023-02-28T06:41:24;8.07;;;5.33;;
1613;SDS011;800;48.824;9.346;2023-02-28T06:43:51;6.83;;;5.37;;
1613;SDS011;800;48.824;9.346;2023-02-28T06:46:17;8.80;;;5.60;;
1613;SDS011;800;48.824;9.346;2023-02-28T06:48:43;6.43;;;5.43;;
1613;SDS011;800;48.824;9.346;2023-02-28T06:51:12;7.60;;;5.43;;
1613;SDS011;800;48.824;9.346;2023-02-28T06:53:42;6.77;;;5.53;;
1613;SDS011;800;48.824;9.346;2023-02-28T06:56:11;6.87;;;5.10;;
1613;SDS011;800;48.824;9.346;2023-02-28T06:58:38;7.03;;;5.73;;
1613;SDS011;800;48.824;9.346;2023-02-28T07:01:05;9.07;;;4.83;;
1613;SDS011;800;48.824;9.346;2023-02-28T07:03:31;6.73;;;5.77;;
1613;SDS011;800;48.824;9.346;2023-02-28T07:05:59;7.20;;;5.90;;
1613;SDS011;800;48.824;9.346;2023-02-28T07:08:25;9.80;;;6.03;;
1613;SDS011;800;48.824;9.346;2023-02-28T07:10:54;7.33;;;6.20;;
1613;SDS011;800;48.824;9.346;2023-02-28T07:13:21;7.43;;;5.93;;
1613;SDS011;800;48.824;9.346;2023-02-28T07:15:54;8.03;;;6.10;;
1613;SDS011;800;48.824;9.346;2023-02-28T07:18:19;8.40;;;6.60;;
1613;SDS011;800;48.824;9.346;2023-02-28T07:20:45;7.90;;;5.90;;
1613;SDS011;800;48.824;9.346;2023-02-28T07:23:11;7.77;;;6.13;;
1613;SDS011;800;48.824;9.346;2023-02-28T07:25:36;8.00;;;5.50;;
1613;SDS011;800;48.824;9.346;2023-02-28T07:28:02;7.50;;;5.93;;
1613;SDS011;800;48.824;9.346;2023-02-28T07:30:27;5.93;;;5.23;;
1613;SDS011;800;48.824;9.346;2023-02-28T07:32:53;7.97;;;6.20;;
1613;SDS011;800;48.824;9.346;2023-02-28T07:35:21;9.80;;;6.07;;
1613;SDS011;800;48.824;9.346;2023-02-28T07:37:47;8.13;;;6.30;;
1613;SDS011;800;48.824;9.346;2023-02-28T07:40:12;7.20;;;5.70;;
1613;SDS011;800;48.824;9.346;2023-02-28T07:42:42;7.43;;;6.00;;
1613;SDS011;800;48.824;9.346;2023-02-28T07:45:08;7.83;;;5.63;;
1613;SDS011;800;48.824;9.346;2023-02-28T07:47:36;9.17;;;6.10;;
1613;SDS011;800;48.824;9.346;2023-02-28T07:50:03;8.60;;;6.40;;
1613;SDS011;800;48.824;9.346;2023-02-28T07:52:30;8.87;;;6.53;;
1613;SDS011;800;48.824;9.346;2023-02-28T07:54:57;9.33;;;6.70;;
1613;SDS011;800;48.824;9.346;2023-02-28T07:57:22;7.77;;;6.17;;
1613;SDS011;800;48.824;9.346;2023-02-28T07:59:48;7.67;;;6.20;;
1613;SDS011;800;48.824;9.346;2023-02-28T08:02:14;10.90;;;7.43;;
1613;SDS011;800;48.824;9.346;2023-02-28T08:04:41;7.63;;;5.70;;
1613;SDS011;800;48.824;9.346;2023-02-28T08:07:07;7.17;;;5.83;;
1613;SDS011;800;48.824;9.346;2023-02-28T08:09:33;8.90;;;7.00;;
1613;SDS011;800;48.824;9.346;2023-02-28T08:11:59;8.53;;;6.83;;
1613;SDS011;800;48.824;9.346;2023-02-28T08:14:24;6.33;;;5.57;;
1613;SDS011;800;48.824;9.346;2023-02-28T08:16:50;10.00;;;6.90;;
1613;SDS011;800;48.824;9.346;2023-02-28T08:19:16;7.73;;;6.60;;
1613;SDS011;800;48.824;9.346;2023-02-28T08:21:41;7.23;;;6.50;;
1613;SDS011;800;48.824;9.346;2023-02-28T08:24:07;9.60;;;6.33;;
1613;SDS011;800;48.824;9.346;2023-02-28T08:26:32;8.00;;;6.40;;
1613;SDS011;800;48.824;9.346;2023-02-28T08:28:58;7.33;;;5.00;;
1613;SDS011;800;48.824;9.346;2023-02-28T08:31:24;7.77;;;6.23;;
1613;SDS011;800;48.824;9.346;2023-02-28T08:33:49;9.00;;;6.83;;
1613;SDS011;800;48.824;9.346;2023-02-28T08:36:16;9.00;;;6.57;;
1613;SDS011;800;48.824;9.346;2023-02-28T08:38:42;8.40;;;7.13;;
1613;SDS011;800;48.824;9.346;2023-02-28T08:41:10;7.17;;;6.47;;
1613;SDS011;800;48.824;9.346;2023-02-28T08:43:38;9.17;;;7.00;;
1613;SDS011;800;48.824;9.346;2023-02-28T08:46:05;8.77;;;6.20;;
1613;SDS011;800;48.824;9.346;2023-02-28T08:48:31;8.73;;;7.03;;
1613;SDS011;800;48.824;9.346;2023-02-28T08:51:05;9.88;;;8.32;;
1613;SDS011;800;48.824;9.346;2023-02-28T08:53:36;11.27;;;8.03;;
1613;SDS011;800;48.824;9.346;2023-02-28T08:56:03;8.63;;;7.17;;
1613;SDS011;800;48.824;9.346;2023-02-28T08:58:37;10.10;;;7.40;;
1613;SDS011;800;48.824;9.346;2023-02-28T09:01:07;10.03;;;7.17;;
1613;SDS011;800;48.824;9.346;2023-02-28T09:03:35;10.30;;;6.80;;
1613;SDS011;800;48.824;9.346;2023-02-28T09:06:00;10.37;;;7.10;;
1613;SDS011;800;48.824;9.346;2023-02-28T09:08:27;9.10;;;6.10;;
1613;SDS011;800;48.824;9.346;2023-02-28T09:10:58;9.70;;;7.37;;
1613;SDS011;800;48.824;9.346;2023-02-28T09:13:24;9.77;;;8.25;;
1613;SDS011;800;48.824;9.346;2023-02-28T09:15:51;10.70;;;6.70;;
1613;SDS011;800;48.824;9.346;2023-02-28T09:18:17;11.47;;;6.93;;
1613;SDS011;800;48.824;9.346;2023-02-28T09:20:42;8.07;;;7.07;;
1613;SDS011;800;48.824;9.346;2023-02-28T09:23:09;15.53;;;7.53;;
1613;SDS011;800;48.824;9.346;2023-02-28T09:25:36;9.10;;;7.20;;
1613;SDS011;800;48.824;9.346;2023-02-28T09:28:02;8.97;;;6.50;;
1613;SDS011;800;48.824;9.346;2023-02-28T09:30:28;9.03;;;6.93;;
1613;SDS011;800;48.824;9.346;2023-02-28T09:32:54;7.77;;;6.80;;
1613;SDS011;800;48.824;9.346;2023-02-28T09:35:20;8.37;;;6.43;;
1613;SDS011;800;48.824;9.346;2023-02-28T09:37:48;10.50;;;7.28;;
1613;SDS011;800;48.824;9.346;2023-02-28T09:40:16;8.37;;;7.27;;
1613;SDS011;800;48.824;9.346;2023-02-28T09:42:45;9.47;;;6.90;;
1613;SDS011;800;48.824;9.346;2023-02-28T09:48:14;8.27;;;6.87;;
1613;SDS011;800;48.824;9.346;2023-02-28T09:50:48;9.70;;;7.00;;
1613;SDS011;800;48.824;9.346;2023-02-28T09:53:27;10.20;;;7.40;;
1613;SDS011;800;48.824;9.346;2023-02-28T09:55:59;8.87;;;7.70;;
1613;SDS011;800;48.824;9.346;2023-02-28T09:58:29;8.60;;;7.30;;
1613;SDS011;800;48.824;9.346;2023-02-28T10:01:06;9.40;;;8.20;;
1613;SDS011;800;48.824;9.346;2023-02-28T10:03:46;13.70;;;7.70;;
1613;SDS011;800;48.824;9.346;2023-02-28T10:06:21;10.00;;;7.50;;
1613;SDS011;800;48.824;9.346;2023-02-28T10:08:58;10.70;;;8.07;;
1613;SDS011;800;48.824;9.346;2023-02-28T10:11:40;8.57;;;7.53;;
1613;SDS011;800;48.824;9.346;2023-02-28T10:16:52;9.17;;;7.60;;
1613;SDS011;800;48.824;9.346;2023-02-28T10:21:59;8.33;;;6.47;;
1613;SDS011;800;48.824;9.346;2023-02-28T10:27:00;10.17;;;7.20;;
1613;SDS011;800;48.824;9.346;2023-02-28T10:29:35;11.90;;;7.90;;
1613;SDS011;800;48.824;9.346;2023-02-28T10:32:01;11.47;;;7.60;;
1613;SDS011;800;48.824;9.346;2023-02-28T10:34:28;8.70;;;7.60;;
1613;SDS011;800;48.824;9.346;2023-02-28T10:36:54;11.13;;;7.60;;
1613;SDS011;800;48.824;9.346;2023-02-28T10:42:25;10.33;;;7.63;;
1613;SDS011;800;48.824;9.346;2023-02-28T10:53:48;9.33;;;7.40;;
1613;SDS011;800;48.824;9.346;2023-02-28T10:55:56;9.40;;;7.90;;
1613;SDS011;800;48.824;9.346;2023-02-28T10:58:24;8.10;;;7.30;;
1613;SDS011;800;48.824;9.346;2023-02-28T11:00:51;9.27;;;8.33;;
1613;SDS011;800;48.824;9.346;2023-02-28T11:03:23;10.17;;;8.27;;
1613;SDS011;800;48.824;9.346;2023-02-28T11:05:48;9.30;;;7.77;;
1613;SDS011;800;48.824;9.346;2023-02-28T11:08:18;10.83;;;8.87;;
1613;SDS011;800;48.824;9.346;2023-02-28T11:10:47;9.30;;;8.33;;
1613;SDS011;800;48.824;9.346;2023-02-28T11:13:20;9.27;;;7.43;;
1613;SDS011;800;48.824;9.346;2023-02-28T11:15:56;10.03;;;7.57;;
1613;SDS011;800;48.824;9.346;2023-02-28T11:18:27;10.00;;;8.00;;
1613;SDS011;800;48.824;9.346;2023-02-28T11:20:56;15.03;;;8.20;;
1613;SDS011;800;48.824;9.346;2023-02-28T11:23:25;10.30;;;8.30;;
1613;SDS011;800;48.824;9.346;2023-02-28T11:25:54;8.87;;;7.53;;
1613;SDS011;800;48.824;9.346;2023-02-28T11:28:30;12.37;;;8.33;;
1613;SDS011;800;48.824;9.346;2023-02-28T11:36:40;10.07;;;7.70;;
1613;SDS011;800;48.824;9.346;2023-02-28T11:38:59;10.83;;;7.47;;
1613;SDS011;800;48.824;9.346;2023-02-28T11:41:47;10.63;;;7.60;;
1613;SDS011;800;48.824;9.346;2023-02-28T12:03:16;9.27;;;7.77;;
1613;SDS011;800;48.824;9.346;2023-02-28T12:11:36;10.53;;;7.53;;
1613;SDS011;800;48.824;9.346;2023-02-28T12:16:58;7.77;;;6.90;;
1613;SDS011;800;48.824;9.346;2023-02-28T12:19:56;8.23;;;7.53;;
1613;SDS011;800;48.824;9.346;2023-02-28T12:22:43;8.60;;;7.73;;
1613;SDS011;800;48.824;9.346;2023-02-28T12:28:34;10.10;;;8.80;;
1613;SDS011;800;48.824;9.346;2023-02-28T12:31:06;10.13;;;8.33;;
1613;SDS011;800;48.824;9.346;2023-02-28T12:33:53;9.40;;;8.40;;
1613;SDS011;800;48.824;9.346;2023-02-28T12:36:21;10.30;;;7.87;;
1613;SDS011;800;48.824;9.346;2023-02-28T12:44:14;9.70;;;8.37;;
1613;SDS011;800;48.824;9.346;2023-02-28T12:46:55;8.10;;;7.40;;
1613;SDS011;800;48.824;9.346;2023-02-28T12:49:29;10.40;;;7.83;;
1613;SDS011;800;48.824;9.346;2023-02-28T12:51:59;8.97;;;8.13;;
1613;SDS011;800;48.824;9.346;2023-02-28T12:54:32;9.57;;;8.53;;
1613;SDS011;800;48.824;9.346;2023-02-28T12:57:08;9.00;;;7.90;;
1613;SDS011;800;48.824;9.346;2023-02-28T12:59:51;10.23;;;8.93;;
1613;SDS011;800;48.824;9.346;2023-02-28T13:11:00;9.00;;;8.10;;
1613;SDS011;800;48.824;9.346;2023-02-28T13:13:26;8.73;;;7.83;;
1613;SDS011;800;48.824;9.346;2023-02-28T13:18:36;9.03;;;8.03;;
1613;SDS011;800;48.824;9.346;2023-02-28T13:24:09;8.63;;;7.00;;
1613;SDS011;800;48.824;9.346;2023-02-28T13:29:02;8.10;;;7.20;;
1613;SDS011;800;48.824;9.346;2023-02-28T14:07:08;7.40;;;6.73;;
1613;SDS011;800;48.824;9.346;2023-02-28T14:09:41;8.33;;;7.37;;
1613;SDS011;800;48.824;9.346;2023-02-28T14:15:26;8.27;;;7.47;;
1613;SDS011;800;48.824;9.346;2023-02-28T14:18:15;9.20;;;7.67;;
1613;SDS011;800;48.824;9.346;2023-02-28T14:20:47;8.17;;;7.30;;
1613;SDS011;800;48.824;9.346;2023-02-28T14:23:19;8.13;;;6.83;;
1613;SDS011;800;48.824;9.346;2023-02-28T14:31:29;8.07;;;7.27;;
1613;SDS011;800;48.824;9.346;2023-02-28T14:34:23;8.40;;;7.50;;
1613;SDS011;800;48.824;9.346;2023-02-28T14:37:02;8.70;;;7.90;;
1613;SDS011;800;48.824;9.346;2023-02-28T14:39:29;8.40;;;7.17;;
1613;SDS011;800;48.824;9.346;2023-02-28T14:41:56;9.60;;;8.40;;
1613;SDS011;800;48.824;9.346;2023-02-28T14:44:28;8.57;;;7.60;;
1613;SDS011;800;48.824;9.346;2023-02-28T14:46:57;11.83;;;9.27;;
1613;SDS011;800;48.824;9.346;2023-02-28T14:49:30;9.07;;;8.17;;
1613;SDS011;800;48.824;9.346;2023-02-28T14:52:12;10.30;;;9.30;;
1613;SDS011;800;48.824;9.346;2023-02-28T14:54:42;8.93;;;8.03;;
1613;SDS011;800;48.824;9.346;2023-02-28T15:00:12;18.33;;;8.27;;
1613;SDS011;800;48.824;9.346;2023-02-28T15:02:45;13.00;;;9.17;;
1613;SDS011;800;48.824;9.346;2023-02-28T15:07:42;7.73;;;6.90;;
1613;SDS011;800;48.824;9.346;2023-02-28T15:10:30;9.80;;;8.80;;
1613;SDS011;800;48.824;9.346;2023-02-28T15:12:56;10.63;;;7.90;;
1613;SDS011;800;48.824;9.346;2023-02-28T15:15:57;8.77;;;7.90;;
1613;SDS011;800;48.824;9.346;2023-02-28T15:26:22;9.07;;;7.73;;
1613;SDS011;800;48.824;9.346;2023-02-28T15:28:58;11.37;;;8.47;;
1613;SDS011;800;48.824;9.346;2023-02-28T15:31:34;11.37;;;8.73;;
1613;SDS011;800;48.824;9.346;2023-02-28T15:34:06;9.03;;;7.50;;
1613;SDS011;800;48.824;9.346;2023-02-28T15:36:40;10.57;;;7.43;;
1613;SDS011;800;48.824;9.346;2023-02-28T15:39:20;10.77;;;8.30;;
1613;SDS011;800;48.824;9.346;2023-02-28T15:41:47;8.60;;;7.80;;
1613;SDS011;800;48.824;9.346;2023-02-28T15:44:14;8.90;;;8.10;;
1613;SDS011;800;48.824;9.346;2023-02-28T15:46:41;9.77;;;8.80;;
1613;SDS011;800;48.824;9.346;2023-02-28T15:49:17;9.60;;;8.70;;
1613;SDS011;800;48.824;9.346;2023-02-28T15:51:44;9.23;;;8.30;;
1613;SDS011;800;48.824;9.346;2023-02-28T15:54:15;8.47;;;7.50;;
1613;SDS011;800;48.824;9.346;2023-02-28T15:56:46;9.13;;;8.23;;
1613;SDS011;800;48.824;9.346;2023-02-28T15:59:16;15.40;;;9.10;;
1613;SDS011;800;48.824;9.346;2023-02-28T16:01:45;9.07;;;8.20;;
1613;SDS011;800;48.824;9.346;2023-02-28T16:04:13;9.73;;;8.60;;
1613;SDS011;800;48.824;9.346;2023-02-28T16:07:00;9.63;;;8.73;;
1613;SDS011;800;48.824;9.346;2023-02-28T16:09:28;10.30;;;9.13;;
1613;SDS011;800;48.824;9.346;2023-02-28T16:11:55;8.40;;;7.20;;
1613;SDS011;800;48.824;9.346;2023-02-28T16:14:26;13.30;;;9.33;;
1613;SDS011;800;48.824;9.346;2023-02-28T16:16:56;9.50;;;8.50;;
1613;SDS011;800;48.824;9.346;2023-02-28T16:19:33;9.50;;;8.60;;
1613;SDS011;800;48.824;9.346;2023-02-28T16:21:59;9.20;;;8.30;;
1613;SDS011;800;48.824;9.346;2023-02-28T16:24:28;9.63;;;8.33;;
1613;SDS011;800;48.824;9.346;2023-02-28T16:26:54;9.57;;;8.50;;
1613;SDS011;800;48.824;9.346;2023-02-28T16:29:26;9.10;;;8.20;;
1613;SDS011;800;48.824;9.346;2023-02-28T16:31:54;9.30;;;8.40;;
1613;SDS011;800;48.824;9.346;2023-02-28T16:34:20;8.20;;;7.40;;
1613;SDS011;800;48.824;9.346;2023-02-28T16:36:47;9.50;;;8.60;;
1613;SDS011;800;48.824;9.346;2023-02-28T16:39:13;11.63;;;8.67;;
1613;SDS011;800;48.824;9.346;2023-02-28T16:41:41;9.73;;;8.70;;
1613;SDS011;800;48.824;9.346;2023-02-28T16:44:10;9.20;;;8.13;;
1613;SDS011;800;48.824;9.346;2023-02-28T16:46:48;9.00;;;8.10;;
1613;SDS011;800;48.824;9.346;2023-02-28T16:49:14;10.30;;;8.40;;
1613;SDS011;800;48.824;9.346;2023-02-28T16:51:40;10.43;;;8.17;;
1613;SDS011;800;48.824;9.346;2023-02-28T16:54:05;10.57;;;8.77;;
1613;SDS011;800;48.824;9.346;2023-02-28T16:56:31;9.70;;;8.10;;
1613;SDS011;800;48.824;9.346;2023-02-28T16:58:59;8.87;;;8.00;;
1613;SDS011;800;48.824;9.346;2023-02-28T17:01:26;9.90;;;8.83;;
1613;SDS011;800;48.824;9.346;2023-02-28T17:03:55;14.10;;;8.63;;
1613;SDS011;800;48.824;9.346;2023-02-28T17:06:25;10.50;;;8.80;;
1613;SDS011;800;48.824;9.346;2023-02-28T17:08:55;10.87;;;8.50;;
1613;SDS011;800;48.824;9.346;2023-02-28T17:11:23;10.50;;;9.40;;
1613;SDS011;800;48.824;9.346;2023-02-28T17:13:49;10.60;;;9.10;;
1613;SDS011;800;48.824;9.346;2023-02-28T17:16:32;12.87;;;9.10;;
1613;SDS011;800;48.824;9.346;2023-02-28T17:19:01;9.50;;;8.60;;
1613;SDS011;800;48.824;9.346;2023-02-28T17:21:28;9.80;;;8.00;;
1613;SDS011;800;48.824;9.346;2023-02-28T17:23:55;9.93;;;8.93;;
1613;SDS011;800;48.824;9.346;2023-02-28T17:26:21;10.10;;;8.90;;
1613;SDS011;800;48.824;9.346;2023-02-28T17:28:49;12.23;;;9.30;;
1613;SDS011;800;48.824;9.346;2023-02-28T17:31:20;9.63;;;8.40;;
1613;SDS011;800;48.824;9.346;2023-02-28T17:33:46;11.40;;;8.97;;
1613;SDS011;800;48.824;9.346;2023-02-28T17:36:22;10.87;;;8.60;;
1613;SDS011;800;48.824;9.346;2023-02-28T17:38:50;11.60;;;8.93;;
1613;SDS011;800;48.824;9.346;2023-02-28T17:41:17;10.83;;;8.60;;
1613;SDS011;800;48.824;9.346;2023-02-28T17:43:43;11.50;;;9.07;;
1613;SDS011;800;48.824;9.346;2023-02-28T17:46:19;10.43;;;8.77;;
1613;SDS011;800;48.824;9.346;2023-02-28T17:48:47;10.37;;;7.87;;
1613;SDS011;800;48.824;9.346;2023-02-28T17:51:13;11.40;;;8.97;;
1613;SDS011;800;48.824;9.346;2023-02-28T17:53:40;12.90;;;8.20;;
1613;SDS011;800;48.824;9.346;2023-02-28T17:56:16;11.20;;;8.47;;
1613;SDS011;800;48.824;9.346;2023-02-28T17:58:48;10.97;;;7.73;;
1613;SDS011;800;48.824;9.346;2023-02-28T18:01:15;13.60;;;9.57;;
1613;SDS011;800;48.824;9.346;2023-02-28T18:03:41;10.63;;;8.37;;
1613;SDS011;800;48.824;9.346;2023-02-28T18:06:07;14.43;;;10.03;;
1613;SDS011;800;48.824;9.346;2023-02-28T18:08:44;12.17;;;8.30;;
1613;SDS011;800;48.824;9.346;2023-02-28T18:11:10;10.33;;;9.23;;
1613;SDS011;800;48.824;9.346;2023-02-28T18:13:42;14.30;;;10.23;;
1613;SDS011;800;48.824;9.346;2023-02-28T18:16:09;12.00;;;9.50;;
1613;SDS011;800;48.824;9.346;2023-02-28T18:18:35;11.90;;;8.80;;
1613;SDS011;800;48.824;9.346;2023-02-28T18:21:03;11.50;;;8.83;;
1613;SDS011;800;48.824;9.346;2023-02-28T18:23:30;11.20;;;9.13;;
1613;SDS011;800;48.824;9.346;2023-02-28T18:25:56;10.93;;;8.73;;
1613;SDS011;800;48.824;9.346;2023-02-28T18:28:22;14.03;;;8.77;;
1613;SDS011;800;48.824;9.346;2023-02-28T18:30:48;11.10;;;8.87;;
1613;SDS011;800;48.824;9.346;2023-02-28T18:33:14;11.63;;;8.70;;
1613;SDS011;800;48.824;9.346;2023-02-28T18:35:40;10.53;;;8.20;;
1613;SDS011;800;48.824;9.346;2023-02-28T18:38:17;10.30;;;9.30;;
1613;SDS011;800;48.824;9.346;2023-02-28T18:40:51;10.87;;;9.23;;
1613;SDS011;800;48.824;9.346;2023-02-28T18:43:18;11.30;;;8.77;;
1613;SDS011;800;48.824;9.346;2023-02-28T18:45:43;12.30;;;8.70;;
1613;SDS011;800;48.824;9.346;2023-02-28T18:48:09;11.17;;;9.37;;
1613;SDS011;800;48.824;9.346;2023-02-28T18:50:38;11.23;;;10.03;;